createdAt,value
2022-10-13T00:02:07.264Z,2.25
2022-10-13T00:08:12.065Z,2.15
2022-10-13T00:11:22.501Z,2.00
2022-10-13T00:14:24.329Z,2.13
2022-10-13T00:17:26.147Z,2.20
2022-10-13T00:20:28.029Z,1.50
2022-10-13T00:23:29.935Z,1.30
2022-10-13T00:26:31.790Z,1.13
2022-10-13T00:32:35.941Z,1.50
2022-10-13T00:35:45.144Z,1.10
2022-10-13T00:38:49.494Z,1.27
2022-10-13T00:41:51.395Z,1.52
2022-10-13T00:45:08.087Z,1.40
2022-10-13T00:48:10.013Z,1.50
2022-10-13T00:51:12.036Z,1.40
2022-10-13T00:54:15.948Z,1.27
2022-10-13T00:57:18.428Z,1.45
2022-10-13T01:00:21.760Z,1.17
2022-10-13T01:03:23.633Z,1.20
2022-10-13T01:06:25.479Z,1.30
2022-10-13T01:09:27.326Z,1.40
2022-10-13T01:12:49.928Z,1.50
2022-10-13T01:16:09.547Z,1.70
2022-10-13T01:19:21.393Z,1.40
2022-10-13T01:22:29.087Z,1.50
2022-10-13T01:25:48.812Z,1.40
2022-10-13T01:29:02.515Z,1.42
2022-10-13T01:32:31.952Z,1.80
2022-10-13T01:35:57.075Z,1.60
2022-10-13T01:39:13.653Z,1.40
2022-10-13T01:42:18.102Z,1.70
2022-10-13T01:45:21.933Z,2.05
2022-10-13T01:48:23.752Z,2.38
2022-10-13T01:54:28.004Z,3.08
2022-10-13T01:57:33.900Z,3.20
2022-10-13T02:00:37.359Z,2.90
2022-10-13T02:03:52.316Z,2.78
2022-10-13T02:06:57.287Z,2.53
2022-10-13T02:10:05.049Z,2.72
2022-10-13T02:13:07.152Z,2.50
2022-10-13T02:16:09.021Z,2.80
2022-10-13T02:19:13.081Z,2.25
2022-10-13T02:22:15.638Z,2.22
2022-10-13T02:25:17.661Z,2.45
2022-10-13T02:28:19.626Z,2.78
2022-10-13T02:31:21.500Z,2.90
2022-10-13T02:34:23.358Z,2.63
2022-10-13T02:37:25.894Z,2.53
2022-10-13T02:40:27.844Z,2.50
2022-10-13T02:43:29.932Z,2.50
2022-10-13T02:46:31.789Z,2.35
2022-10-13T02:49:33.597Z,2.00
2022-10-13T02:52:35.472Z,2.13
2022-10-13T02:55:37.251Z,1.92
2022-10-13T02:58:39.099Z,1.98
2022-10-13T03:01:42.247Z,1.90
2022-10-13T03:04:44.111Z,2.17
2022-10-13T03:07:45.938Z,2.08
2022-10-13T03:10:47.751Z,1.73
2022-10-13T03:13:49.640Z,1.88
2022-10-13T03:16:51.462Z,1.83
2022-10-13T03:19:55.107Z,1.80
2022-10-13T03:22:57.107Z,1.73
2022-10-13T03:25:59.008Z,1.70
2022-10-13T03:29:00.993Z,1.90
2022-10-13T03:32:02.870Z,1.85
2022-10-13T03:35:05.896Z,1.70
2022-10-13T03:38:08.149Z,2.00
2022-10-13T03:41:12.767Z,1.77
2022-10-13T03:44:14.652Z,1.80
2022-10-13T03:47:16.546Z,2.22
2022-10-13T03:50:18.404Z,2.10
2022-10-13T03:53:20.288Z,1.90
2022-10-13T03:56:26.626Z,2.15
2022-10-13T03:59:34.149Z,2.17
2022-10-13T04:02:38.312Z,2.08
2022-10-13T04:05:40.647Z,2.33
2022-10-13T04:08:42.492Z,2.50
2022-10-13T04:11:44.377Z,2.45
2022-10-13T04:14:46.292Z,2.28
2022-10-13T04:17:48.124Z,2.58
2022-10-13T04:20:50.225Z,2.90
2022-10-13T04:23:54.099Z,2.88
2022-10-13T04:26:55.966Z,3.08
2022-10-13T04:29:57.848Z,7.90
2022-10-13T04:32:59.713Z,3.97
2022-10-13T04:36:07.490Z,4.18
2022-10-13T04:39:09.334Z,3.60
2022-10-13T04:42:11.145Z,4.13
2022-10-13T04:45:13.060Z,3.70
2022-10-13T04:48:16.680Z,4.28
2022-10-13T04:51:20.853Z,3.83
2022-10-13T04:54:22.671Z,4.50
2022-10-13T04:57:24.522Z,4.50
2022-10-13T05:00:26.433Z,4.60
2022-10-13T05:03:28.396Z,4.60
2022-10-13T05:06:32.894Z,5.10
2022-10-13T05:09:34.724Z,5.28
2022-10-13T05:12:41.837Z,4.93
2022-10-13T05:15:43.708Z,5.05
2022-10-13T05:18:45.672Z,5.28
2022-10-13T05:21:47.520Z,5.53
2022-10-13T05:24:49.368Z,5.45
2022-10-13T05:27:51.203Z,5.22
2022-10-13T05:30:53.024Z,5.90
2022-10-13T05:33:55.382Z,4.97
2022-10-13T05:39:59.193Z,5.38
2022-10-13T05:43:01.213Z,5.47
2022-10-13T05:46:03.147Z,5.78
2022-10-13T05:49:04.971Z,5.63
2022-10-13T05:52:09.570Z,6.38
2022-10-13T05:55:11.478Z,6.95
2022-10-13T05:58:13.345Z,6.72
2022-10-13T06:01:16.539Z,7.57
2022-10-13T06:04:24.355Z,6.95
2022-10-13T06:07:26.207Z,6.85
2022-10-13T06:10:28.139Z,7.20
2022-10-13T06:13:30.007Z,7.35
2022-10-13T06:16:31.847Z,7.10
2022-10-13T06:19:33.683Z,6.38
2022-10-13T06:22:42.061Z,7.28
2022-10-13T06:25:50.768Z,7.38
2022-10-13T06:28:58.381Z,7.88
2022-10-13T06:32:02.269Z,6.97
2022-10-13T06:35:04.513Z,7.28
2022-10-13T06:38:06.364Z,8.10
2022-10-13T06:41:08.423Z,7.18
2022-10-13T06:44:11.411Z,7.72
2022-10-13T06:47:13.345Z,8.18
2022-10-13T06:50:15.255Z,7.45
2022-10-13T06:53:17.077Z,6.55
2022-10-13T06:56:18.915Z,7.25
2022-10-13T06:59:21.320Z,6.75
2022-10-13T07:02:23.406Z,7.07
2022-10-13T07:05:25.363Z,6.90
2022-10-13T07:08:27.183Z,7.28
2022-10-13T07:11:29.464Z,6.10
2022-10-13T07:17:33.166Z,6.47
2022-10-13T07:20:35.068Z,7.30
2022-10-13T07:23:36.874Z,8.27
2022-10-13T07:26:38.746Z,7.90
2022-10-13T07:29:40.669Z,7.55
2022-10-13T07:32:42.623Z,8.02
2022-10-13T07:35:44.455Z,8.32
2022-10-13T07:38:46.732Z,8.25
2022-10-13T07:41:51.066Z,8.85
2022-10-13T07:44:53.250Z,8.55
2022-10-13T07:47:56.365Z,7.90
2022-10-13T07:50:58.363Z,8.77
2022-10-13T07:54:00.246Z,8.27
2022-10-13T07:57:02.106Z,9.15
2022-10-13T08:00:06.149Z,8.18
2022-10-13T08:03:14.132Z,10.48
2022-10-13T08:06:16.106Z,8.98
2022-10-13T08:09:18.081Z,9.27
2022-10-13T08:12:20.285Z,8.40
2022-10-13T08:15:22.296Z,7.93
2022-10-13T08:18:24.152Z,6.78
2022-10-13T08:21:56.407Z,7.13
2022-10-13T08:24:49.554Z,6.45
2022-10-13T08:27:53.075Z,6.03
2022-10-13T08:30:59.808Z,6.15
2022-10-13T08:34:01.712Z,6.88
2022-10-13T08:37:03.645Z,6.57
2022-10-13T08:40:06.447Z,7.40
2022-10-13T08:43:09.061Z,5.40
2022-10-13T08:46:11.234Z,5.00
2022-10-13T08:49:14.451Z,5.72
2022-10-13T08:52:26.954Z,5.38
2022-10-13T08:55:46.465Z,4.60
2022-10-13T08:58:49.378Z,3.90
2022-10-13T09:01:53.560Z,3.45
2022-10-13T09:04:55.607Z,3.08
2022-10-13T09:07:57.699Z,2.63
2022-10-13T09:11:01.408Z,2.47
2022-10-13T09:14:05.610Z,2.70
2022-10-13T09:17:27.854Z,2.45
2022-10-13T09:23:31.469Z,2.25
2022-10-13T09:26:37.429Z,2.10
2022-10-13T09:29:39.806Z,2.20
2022-10-13T09:32:42.585Z,2.50
2022-10-13T09:39:15.743Z,2.00
2022-10-13T09:42:23.545Z,2.20
2022-10-13T09:45:25.671Z,2.20
2022-10-13T09:48:29.328Z,2.45
2022-10-13T09:51:41.113Z,2.13
2022-10-13T09:54:59.579Z,2.05
2022-10-13T09:58:14.984Z,2.30
2022-10-13T10:01:21.720Z,2.70
2022-10-13T10:04:36.134Z,2.60
2022-10-13T10:07:38.096Z,2.40
2022-10-13T10:10:40.500Z,2.50
2022-10-13T10:13:43.972Z,2.30
2022-10-13T10:16:50.647Z,2.20
2022-10-13T10:20:08.080Z,2.10
2022-10-13T10:23:19.196Z,2.30
2022-10-13T10:26:31.613Z,2.00
2022-10-13T10:29:46.031Z,2.10
2022-10-13T10:33:14.379Z,2.17
2022-10-13T10:36:19.794Z,2.95
2022-10-13T10:39:27.693Z,5.18
2022-10-13T10:42:52.330Z,5.20
2022-10-13T10:45:55.748Z,3.90
2022-10-13T10:49:14.327Z,4.00
2022-10-13T10:52:24.356Z,3.85
2022-10-13T10:55:37.980Z,4.88
2022-10-13T10:58:45.728Z,4.07
2022-10-13T11:02:12.528Z,5.70
2022-10-13T11:05:14.678Z,3.17
2022-10-13T11:08:38.288Z,2.97
2022-10-13T11:11:43.173Z,2.80
2022-10-13T11:15:02.640Z,2.38
2022-10-13T11:18:43.099Z,3.28
2022-10-13T11:21:53.818Z,2.83
2022-10-13T11:24:56.468Z,2.65
2022-10-13T11:27:58.320Z,2.10
2022-10-13T11:31:15.420Z,2.10
2022-10-13T11:34:30.894Z,1.90
2022-10-13T11:38:05.966Z,1.85
2022-10-13T11:41:13.644Z,2.05
2022-10-13T11:44:35.089Z,1.80
2022-10-13T11:47:46.626Z,2.17
2022-10-13T11:51:06.728Z,1.70
2022-10-13T11:54:08.508Z,2.05
2022-10-13T11:57:27.033Z,3.22
2022-10-13T12:00:28.842Z,2.00
2022-10-13T12:06:34.908Z,1.77
2022-10-13T12:09:54.681Z,1.73
2022-10-13T12:12:58.415Z,1.83
2022-10-13T12:16:06.393Z,1.85
2022-10-13T12:19:29.611Z,1.77
2022-10-13T12:22:31.496Z,2.30
2022-10-13T12:25:33.717Z,1.95
2022-10-13T12:28:51.329Z,2.03
2022-10-13T12:31:53.395Z,1.90
2022-10-13T12:34:55.262Z,2.03
2022-10-13T12:38:13.619Z,2.30
2022-10-13T12:41:18.102Z,1.90
2022-10-13T12:44:25.432Z,2.33
2022-10-13T12:47:45.315Z,2.13
2022-10-13T12:50:47.160Z,1.70
2022-10-13T12:53:49.028Z,1.88
2022-10-13T12:56:55.262Z,1.60
2022-10-13T12:59:58.463Z,1.60
2022-10-13T13:06:14.984Z,1.40
2022-10-13T13:09:29.876Z,1.40
2022-10-13T13:12:31.746Z,1.60
2022-10-13T13:15:35.603Z,1.58
2022-10-13T13:18:42.418Z,1.70
2022-10-13T13:21:47.149Z,1.83
2022-10-13T13:24:50.530Z,1.77
2022-10-13T13:27:52.534Z,1.85
2022-10-13T13:33:56.145Z,1.90
2022-10-13T13:36:57.989Z,1.80
2022-10-13T13:40:00.011Z,1.90
2022-10-13T13:46:06.540Z,2.13
2022-10-13T13:49:09.737Z,2.45
2022-10-13T13:52:11.563Z,1.88
2022-10-13T13:55:13.592Z,2.15
2022-10-13T14:01:17.230Z,2.20
2022-10-13T14:04:19.047Z,2.42
2022-10-13T14:07:21.234Z,2.10
2022-10-13T14:10:26.261Z,2.10
2022-10-13T14:16:29.876Z,2.00
2022-10-13T14:19:33.199Z,1.85
2022-10-13T14:22:37.679Z,2.15
2022-10-13T14:25:39.586Z,1.60
2022-10-13T14:31:44.293Z,1.90
2022-10-13T14:34:46.132Z,1.80
2022-10-13T14:37:48.012Z,1.70
2022-10-13T14:40:49.876Z,2.10
2022-10-13T14:43:53.376Z,2.38
2022-10-13T14:46:55.230Z,2.28
2022-10-13T14:49:57.129Z,2.13
2022-10-13T14:56:02.840Z,1.50
2022-10-13T14:59:07.116Z,1.60
2022-10-13T15:02:11.874Z,1.55
2022-10-13T15:05:16.549Z,1.70
2022-10-13T15:11:22.290Z,1.60
2022-10-13T15:14:24.211Z,2.00
2022-10-13T15:17:26.052Z,1.48
2022-10-13T15:20:29.178Z,1.70
2022-10-13T15:23:32.304Z,1.77
2022-10-13T15:26:34.964Z,1.90
2022-10-13T15:29:36.829Z,2.03
2022-10-13T15:32:38.645Z,2.33
2022-10-13T15:35:40.472Z,2.30
2022-10-13T15:38:42.318Z,2.28
2022-10-13T15:41:44.124Z,2.40
2022-10-13T15:48:08.431Z,2.50
2022-10-13T15:51:16.475Z,2.58
2022-10-13T15:54:18.440Z,2.50
2022-10-13T15:57:20.288Z,2.50
2022-10-13T16:00:22.200Z,2.65
2022-10-13T16:03:29.619Z,2.53
2022-10-13T16:06:33.497Z,2.58
2022-10-13T16:09:35.299Z,2.80
2022-10-13T16:12:37.170Z,2.72
2022-10-13T16:15:39.037Z,2.78
2022-10-13T16:18:41.254Z,3.00
2022-10-13T16:24:45.051Z,3.15
2022-10-13T16:27:46.887Z,2.80
2022-10-13T16:30:48.728Z,2.78
2022-10-13T16:33:50.555Z,3.15
2022-10-13T16:36:52.492Z,3.25
2022-10-13T16:39:54.315Z,3.20
2022-10-13T16:42:56.159Z,3.35
2022-10-13T16:46:00.407Z,3.28
2022-10-13T16:49:02.430Z,3.30
2022-10-13T16:52:04.345Z,3.40
2022-10-13T16:55:06.804Z,4.00
2022-10-13T16:58:08.852Z,4.35
2022-10-13T17:01:11.542Z,3.90
2022-10-13T17:04:13.435Z,4.38
2022-10-13T17:07:15.415Z,4.05
2022-10-13T17:10:17.366Z,5.30
2022-10-13T17:13:19.300Z,4.70
2022-10-13T17:16:21.392Z,5.97
2022-10-13T17:19:23.188Z,6.57
2022-10-13T17:22:25.004Z,5.10
2022-10-13T17:25:26.877Z,5.40
2022-10-13T17:28:30.216Z,5.25
2022-10-13T17:31:32.043Z,5.15
2022-10-13T17:34:35.569Z,5.38
2022-10-13T17:37:38.353Z,14.75
2022-10-13T17:40:40.215Z,4.55
2022-10-13T17:43:42.136Z,7.63
2022-10-13T17:46:43.968Z,5.07
2022-10-13T17:49:45.808Z,4.82
2022-10-13T17:52:50.553Z,4.72
2022-10-13T17:55:54.744Z,5.32
2022-10-13T17:58:56.976Z,6.50
2022-10-13T18:01:59.128Z,6.78
2022-10-13T18:05:01.096Z,6.80
2022-10-13T18:08:03.240Z,7.05
2022-10-13T18:11:12.389Z,6.97
2022-10-13T18:14:14.280Z,7.95
2022-10-13T18:17:18.231Z,8.75
2022-10-13T18:20:20.268Z,9.40
2022-10-13T18:23:22.084Z,12.73
2022-10-13T18:26:24.709Z,14.48
2022-10-13T18:29:26.508Z,13.00
2022-10-13T18:32:28.513Z,13.82
2022-10-13T18:35:32.391Z,9.15
2022-10-13T18:38:34.289Z,10.48
2022-10-13T18:41:36.476Z,9.00
2022-10-13T18:44:38.300Z,7.75
2022-10-13T18:47:40.128Z,6.13
2022-10-13T18:50:42.027Z,5.97
2022-10-13T18:53:44.857Z,9.75
2022-10-13T18:56:47.148Z,15.52
2022-10-13T18:59:48.971Z,14.02
2022-10-13T19:02:52.493Z,10.75
2022-10-13T19:05:54.389Z,8.00
2022-10-13T19:08:57.240Z,21.27
2022-10-13T19:11:59.096Z,13.65
2022-10-13T19:15:00.888Z,16.08
2022-10-13T19:18:02.724Z,7.47
2022-10-13T19:21:04.779Z,8.05
2022-10-13T19:24:07.475Z,8.35
2022-10-13T19:27:09.267Z,7.55
2022-10-13T19:30:11.665Z,6.03
2022-10-13T19:33:13.974Z,6.13
2022-10-13T19:36:32.288Z,5.38
2022-10-13T19:39:35.420Z,5.45
2022-10-13T19:42:37.288Z,5.45
2022-10-13T19:45:46.857Z,5.50
2022-10-13T19:48:49.643Z,5.15
2022-10-13T19:51:53.788Z,5.53
2022-10-13T19:54:55.900Z,5.40
2022-10-13T19:57:57.682Z,5.32
2022-10-13T20:01:06.867Z,5.10
2022-10-13T20:04:08.890Z,5.45
2022-10-13T20:07:12.293Z,6.55
2022-10-13T20:10:14.121Z,5.85
2022-10-13T20:13:15.948Z,5.90
2022-10-13T20:16:18.960Z,5.68
2022-10-13T20:19:20.811Z,5.65
2022-10-13T20:22:22.930Z,6.32
2022-10-13T20:25:25.126Z,7.35
2022-10-13T20:28:28.052Z,7.07
2022-10-13T20:31:29.973Z,7.25
2022-10-13T20:34:31.810Z,8.27
2022-10-13T20:37:33.742Z,8.18
2022-10-13T20:40:35.693Z,8.20
2022-10-13T20:43:37.540Z,9.88
2022-10-13T20:46:39.391Z,8.13
2022-10-13T20:49:41.236Z,10.27
2022-10-13T20:52:43.047Z,10.45
2022-10-13T20:55:45.529Z,8.80
2022-10-13T20:58:47.437Z,8.63
2022-10-13T21:01:49.309Z,7.05
2022-10-13T21:04:51.157Z,7.68
2022-10-13T21:07:52.959Z,7.38
2022-10-13T21:10:54.808Z,7.68
2022-10-13T21:16:59.384Z,7.27
2022-10-13T21:20:01.225Z,7.47
2022-10-13T21:23:05.760Z,7.35
2022-10-13T21:26:08.476Z,7.55
2022-10-13T21:29:10.286Z,9.93
2022-10-13T21:32:12.181Z,9.60
2022-10-13T21:35:15.624Z,8.77
2022-10-13T21:38:17.409Z,8.77
2022-10-13T21:41:21.596Z,9.15
2022-10-13T21:44:23.456Z,7.93
2022-10-13T21:47:28.832Z,8.88
2022-10-13T21:50:30.631Z,8.65
2022-10-13T21:53:32.427Z,7.75
2022-10-13T21:56:34.825Z,8.18
2022-10-13T21:59:37.238Z,7.32
2022-10-13T22:02:39.049Z,7.65
2022-10-13T22:05:42.537Z,7.68
2022-10-13T22:08:44.877Z,7.60
2022-10-13T22:11:51.801Z,7.50
2022-10-13T22:14:57.438Z,7.50
2022-10-13T22:17:59.292Z,7.43
2022-10-13T22:21:05.557Z,7.15
2022-10-13T22:24:08.559Z,7.53
2022-10-13T22:27:10.377Z,6.47
2022-10-13T22:30:12.462Z,6.32
2022-10-13T22:33:14.357Z,6.18
2022-10-13T22:36:17.602Z,5.40
2022-10-13T22:39:19.420Z,5.05
2022-10-13T22:42:22.333Z,5.07
2022-10-13T22:45:24.189Z,5.22
2022-10-13T22:48:26.098Z,5.07
2022-10-13T22:51:30.862Z,4.95
2022-10-13T22:54:32.688Z,4.70
2022-10-13T22:57:34.527Z,5.25
2022-10-13T23:00:36.680Z,5.18
2022-10-13T23:03:38.654Z,4.65
2022-10-13T23:06:40.590Z,4.95
2022-10-13T23:09:42.403Z,5.60
2022-10-13T23:12:44.221Z,4.72
2022-10-13T23:15:46.008Z,5.53
2022-10-13T23:18:47.952Z,6.25
2022-10-13T23:21:58.441Z,6.55
2022-10-13T23:25:00.232Z,6.03
2022-10-13T23:28:02.105Z,6.90
2022-10-13T23:31:05.996Z,7.07
2022-10-13T23:34:08.082Z,6.93
2022-10-13T23:37:09.974Z,7.05
2022-10-13T23:40:12.207Z,6.78
2022-10-13T23:43:14.068Z,6.85
2022-10-13T23:46:16.697Z,6.68
2022-10-13T23:49:18.475Z,5.85
2022-10-13T23:52:20.444Z,6.65
2022-10-13T23:55:22.298Z,5.90
2022-10-13T23:58:24.173Z,5.60
